Estación de Freire

Ultimos registro cada 15 minutos 65
Estación Fecha / Hora Temperatura Humedad Lluvia Velocidad Dirección Radiación Presion
65 Freire 08-05-2026 17:00 11,1 89 0,3 0,4 176 77 1009,6
64 Freire 08-05-2026 16:45 11,4 87 0 0 251 26 1009,6
63 Freire 08-05-2026 16:30 11,5 88 0 0,4 176 174 1009,6
62 Freire 08-05-2026 16:15 11,6 86 0 1,3 222 302 1009,6
61 Freire 08-05-2026 16:00 11,5 91 0 0 289 332 1009,6
60 Freire 08-05-2026 15:45 10,8 92 0,3 0,4 273 288 1009,6
59 Freire 08-05-2026 15:30 10,8 92 0 0,4 176 107 1009,6
58 Freire 08-05-2026 15:15 10,9 90 0 0,9 229 113 1009,6
57 Freire 08-05-2026 15:00 11 92 0,3 0 226 195 1009,6
56 Freire 08-05-2026 14:45 11,3 96 0 0 241 503 1009,6
55 Freire 08-05-2026 14:30 10,6 97 0 0 261 156 1009,6
54 Freire 08-05-2026 14:15 10,3 97 0 1,3 176 151 1009,6
53 Freire 08-05-2026 14:00 11 100 0,3 0,9 306 316 1009,6
52 Freire 08-05-2026 13:45 9,9 100 0 0 231 288 1009,6
51 Freire 08-05-2026 13:30 9,9 100 0 0 231 288 1009,6
50 Freire 08-05-2026 13:15 10,1 100 0 0,4 235 223 1009,6
49 Freire 08-05-2026 13:00 10 100 0 0,4 315 304 1009,6
48 Freire 08-05-2026 12:30 9,2 100 0,3 0,4 176 76 1009,6
47 Freire 08-05-2026 12:15 8,8 100 0 0 253 83 1009,6
46 Freire 08-05-2026 12:00 8,8 100 0 0 253 83 1009,6
45 Freire 08-05-2026 11:45 8,7 100 0 0,4 252 70 1009,6
44 Freire 08-05-2026 11:30 8,6 100 0 0 252 54 1009,6
43 Freire 08-05-2026 11:15 8,6 100 0 0 252 67 1009,6
42 Freire 08-05-2026 11:00 8,6 100 0 0 252 67 1009,6
41 Freire 08-05-2026 10:45 8,6 99 0,3 0 252 60 1009,6
40 Freire 08-05-2026 10:30 8,5 99 0 0 252 53 1009,6
39 Freire 08-05-2026 10:15 8,2 100 0,3 0 176 74 1009,6
38 Freire 08-05-2026 10:00 8,2 100 0,3 0 176 74 1009,6
37 Freire 08-05-2026 09:45 8,2 100 0,3 0 176 74 1009,6
36 Freire 08-05-2026 09:30 8,2 100 0,3 0 176 74 1009,6
35 Freire 08-05-2026 09:15 7,9 99 0 0 176 44 1009,6
34 Freire 08-05-2026 08:45 7,7 99 0 0 176 21 1009,6
33 Freire 08-05-2026 08:30 7,7 99 0 0 176 21 1009,6
32 Freire 08-05-2026 08:15 7,7 99 0 0 176 0 1009,6
31 Freire 08-05-2026 08:00 7,6 99 0,3 0 176 0 1009,6
30 Freire 08-05-2026 07:45 7,6 99 0 0 176 0 1009,6
29 Freire 08-05-2026 07:30 7,6 99 0 0 176 0 1009,6
28 Freire 08-05-2026 07:15 7,6 99 0 0 176 0 1009,6
27 Freire 08-05-2026 07:00 7,6 99 0 0 176 0 1009,6
26 Freire 08-05-2026 06:45 7,6 99 0 0 176 0 1009,6
25 Freire 08-05-2026 06:30 7,6 99 0 0 176 0 1009,6
24 Freire 08-05-2026 06:15 7,5 99 0,3 0 176 0 1009,6
23 Freire 08-05-2026 06:00 7,5 99 0 0 176 0 1009,6
22 Freire 08-05-2026 05:45 7,4 99 0 0 176 0 1009,6
21 Freire 08-05-2026 05:30 7,5 99 0 0 176 0 1009,6
20 Freire 08-05-2026 05:00 7,4 99 0 0 176 0 1009,6
19 Freire 08-05-2026 04:45 7,4 99 0 0 176 0 1009,6
18 Freire 08-05-2026 04:30 7,4 99 0 0 176 0 1009,6
17 Freire 08-05-2026 04:15 7,4 99 0,3 0 176 0 1009,6
16 Freire 08-05-2026 04:00 7,4 99 0 0 176 0 1009,6
15 Freire 08-05-2026 03:45 7,4 99 0 0 176 0 1009,6
14 Freire 08-05-2026 03:30 7,3 99 0 0,4 176 0 1009,6
13 Freire 08-05-2026 03:15 7,3 99 0 0,4 176 0 1009,6
12 Freire 08-05-2026 03:00 7,4 99 0 0 176 0 1009,6
11 Freire 08-05-2026 02:45 7,4 99 0 0 176 0 1009,6
10 Freire 08-05-2026 02:30 7,4 99 0,3 0 176 0 1009,6
9 Freire 08-05-2026 02:15 7,5 99 0 0,4 176 0 1009,6
8 Freire 08-05-2026 02:00 7,6 99 0 0 176 0 1009,6
7 Freire 08-05-2026 01:45 7,6 99 0 0 176 0 1009,6
6 Freire 08-05-2026 01:30 7,6 99 0 0 176 0 1009,6
5 Freire 08-05-2026 01:15 7,6 99 0 0,4 176 0 1009,6
4 Freire 08-05-2026 00:45 7,6 99 0 0,4 176 0 1009,6
3 Freire 08-05-2026 00:30 7,6 99 0 0,4 176 0 1009,6
2 Freire 08-05-2026 00:15 7,6 99 0 0,4 176 0 1009,6
1 Freire 08-05-2026 00:00 7,7 98 0 1,8 176 0 1009,6